createdAt,value
2017-01-01T00:00:47.290Z,11.64
2017-01-01T00:01:58.616Z,11.69
2017-01-01T00:03:10.011Z,11.73
2017-01-01T00:04:21.337Z,11.67
2017-01-01T00:05:32.230Z,11.64
2017-01-01T00:06:43.543Z,11.58
2017-01-01T00:07:54.442Z,11.6
2017-01-01T00:09:05.838Z,11.69
2017-01-01T00:10:16.735Z,11.67
2017-01-01T00:11:28.056Z,11.67
2017-01-01T00:12:39.381Z,11.7
2017-01-01T00:13:50.274Z,11.65
2017-01-01T00:15:01.643Z,11.65
2017-01-01T00:16:12.960Z,11.67
2017-01-01T00:17:24.285Z,11.64
2017-01-01T00:18:35.603Z,11.62
2017-01-01T00:19:46.496Z,11.61
2017-01-01T00:20:57.005Z,11.58
2017-01-01T00:22:07.895Z,11.57
2017-01-01T00:23:19.211Z,11.62
2017-01-01T00:24:30.108Z,11.7
2017-01-01T00:25:41.425Z,11.73
2017-01-01T00:26:52.791Z,11.8
2017-01-01T00:28:04.103Z,11.61
2017-01-01T00:29:15.433Z,11.62
2017-01-01T00:30:26.330Z,11.61
2017-01-01T00:31:37.655Z,11.65
2017-01-01T00:32:49.025Z,11.61
2017-01-01T00:34:00.349Z,11.69
2017-01-01T00:35:11.251Z,11.73
2017-01-01T00:36:22.564Z,11.67
2017-01-01T00:37:33.884Z,11.72
2017-01-01T00:38:44.826Z,11.72
2017-01-01T00:39:55.723Z,11.7
2017-01-01T00:41:07.048Z,11.64
2017-01-01T00:42:18.369Z,11.78
2017-01-01T00:43:29.691Z,11.69
2017-01-01T00:44:40.636Z,11.64
2017-01-01T00:45:51.529Z,11.69
2017-01-01T00:47:02.427Z,11.61
2017-01-01T00:48:13.751Z,11.7
2017-01-01T00:49:25.068Z,11.62
2017-01-01T00:50:36.010Z,11.7
2017-01-01T00:51:47.327Z,11.61
2017-01-01T00:52:58.647Z,11.64
2017-01-01T00:54:09.973Z,11.67
2017-01-01T00:55:20.866Z,11.69
2017-01-01T00:56:31.811Z,11.62
2017-01-01T00:57:43.132Z,11.67
2017-01-01T00:58:54.449Z,11.65
2017-01-01T01:00:05.350Z,11.62
2017-01-01T01:01:16.676Z,11.58
2017-01-01T01:02:28.041Z,11.64
2017-01-01T01:03:38.930Z,11.61
2017-01-01T01:04:49.816Z,11.64
2017-01-01T01:06:00.313Z,11.6
2017-01-01T01:07:11.206Z,11.61
2017-01-01T01:08:22.575Z,11.64
2017-01-01T01:09:33.468Z,11.73
2017-01-01T01:10:44.793Z,11.67
2017-01-01T01:11:56.138Z,11.57
2017-01-01T01:13:07.460Z,11.7
2017-01-01T01:14:18.409Z,11.6
2017-01-01T01:15:29.735Z,11.73
2017-01-01T01:16:41.059Z,11.61
2017-01-01T01:17:51.948Z,11.65
2017-01-01T01:19:03.270Z,11.62
2017-01-01T01:20:14.643Z,11.6
2017-01-01T01:21:25.128Z,11.62
2017-01-01T01:22:36.446Z,11.52
2017-01-01T01:23:47.770Z,11.64
2017-01-01T01:24:59.087Z,11.54
2017-01-01T01:26:10.453Z,11.69
2017-01-01T01:27:21.778Z,11.52
2017-01-01T01:28:32.667Z,11.61
2017-01-01T01:29:43.564Z,11.57
2017-01-01T01:30:54.477Z,11.55
2017-01-01T01:32:05.851Z,11.61
2017-01-01T01:33:16.744Z,11.65
2017-01-01T01:34:28.060Z,11.64
2017-01-01T01:35:38.950Z,11.6
2017-01-01T01:36:50.271Z,11.58
2017-01-01T01:38:01.636Z,11.52
2017-01-01T01:39:12.950Z,11.6
2017-01-01T01:40:24.278Z,11.58
2017-01-01T01:41:35.164Z,11.51
2017-01-01T01:42:46.057Z,11.61
2017-01-01T01:43:56.574Z,11.58
2017-01-01T01:45:07.902Z,11.54
2017-01-01T01:46:18.792Z,11.55
2017-01-01T01:47:30.106Z,11.58
2017-01-01T01:48:41.419Z,11.57
2017-01-01T01:49:52.356Z,11.57
2017-01-01T01:51:03.685Z,11.57
2017-01-01T01:52:15.011Z,11.57
2017-01-01T01:53:25.911Z,11.52
2017-01-01T01:54:37.233Z,11.55
2017-01-01T01:55:48.602Z,11.55
2017-01-01T01:56:59.931Z,11.47
2017-01-01T01:58:11.260Z,11.58
2017-01-01T01:59:22.593Z,11.57
2017-01-01T02:00:33.491Z,11.57
2017-01-01T02:01:44.436Z,11.51
2017-01-01T02:02:55.749Z,11.44
2017-01-01T02:04:06.646Z,11.54
2017-01-01T02:05:17.971Z,11.4
2017-01-01T02:06:28.860Z,11.58
2017-01-01T02:07:39.810Z,11.49
2017-01-01T02:08:50.695Z,11.46
2017-01-01T02:10:02.016Z,11.57
2017-01-01T02:11:13.342Z,11.55
2017-01-01T02:12:24.227Z,11.44
2017-01-01T02:13:35.168Z,11.44
2017-01-01T02:14:46.065Z,11.49
2017-01-01T02:15:56.954Z,11.52
2017-01-01T02:17:08.291Z,11.46
2017-01-01T02:18:19.608Z,11.49
2017-01-01T02:19:30.157Z,11.57
2017-01-01T02:20:41.050Z,11.43
2017-01-01T02:21:52.371Z,11.51
2017-01-01T02:23:03.685Z,11.44
2017-01-01T02:24:15.006Z,11.43
2017-01-01T02:25:25.951Z,11.4
2017-01-01T02:26:36.841Z,11.37
2017-01-01T02:27:47.734Z,11.46
2017-01-01T02:28:59.047Z,11.4
2017-01-01T02:30:09.948Z,11.46
2017-01-01T02:31:21.313Z,11.37
2017-01-01T02:32:32.638Z,11.47
2017-01-01T02:33:43.955Z,11.39
2017-01-01T02:34:54.853Z,11.46
2017-01-01T02:36:06.178Z,11.43
2017-01-01T02:37:17.126Z,11.37
2017-01-01T02:38:28.444Z,11.42
2017-01-01T02:39:39.337Z,11.37
2017-01-01T02:40:50.658Z,11.44
2017-01-01T02:42:01.552Z,11.39
2017-01-01T02:43:12.921Z,11.42
2017-01-01T02:44:24.254Z,11.42
2017-01-01T02:45:34.715Z,11.37
2017-01-01T02:46:46.037Z,11.35
2017-01-01T02:47:56.926Z,11.35
2017-01-01T02:49:08.295Z,11.33
2017-01-01T02:50:19.184Z,11.39
2017-01-01T02:51:30.497Z,11.29
2017-01-01T02:52:41.855Z,11.29
2017-01-01T02:53:53.179Z,11.32
2017-01-01T02:55:05.504Z,11.32
2017-01-01T02:56:16.822Z,11.24
2017-01-01T02:57:28.142Z,11.24
2017-01-01T02:58:39.460Z,11.28
2017-01-01T02:59:50.773Z,11.33
2017-01-01T03:01:01.727Z,11.25
2017-01-01T03:02:12.620Z,11.28
2017-01-01T03:03:23.941Z,11.28
2017-01-01T03:04:35.266Z,11.25
2017-01-01T03:05:46.603Z,11.24
2017-01-01T03:06:57.545Z,11.25
2017-01-01T03:08:08.429Z,11.21
2017-01-01T03:09:19.327Z,11.28
2017-01-01T03:10:30.648Z,11.22
2017-01-01T03:11:41.541Z,11.28
2017-01-01T03:12:52.958Z,11.21
2017-01-01T03:14:04.292Z,11.21
2017-01-01T03:15:15.184Z,11.29
2017-01-01T03:16:26.502Z,11.24
2017-01-01T03:17:37.823Z,11.19
2017-01-01T03:18:48.760Z,11.17
2017-01-01T03:19:59.661Z,11.25
2017-01-01T03:21:10.979Z,11.19
2017-01-01T03:22:21.884Z,11.11
2017-01-01T03:23:32.803Z,11.15
2017-01-01T03:24:44.558Z,11.18
2017-01-01T03:25:55.879Z,11.22
2017-01-01T03:27:06.772Z,11.18
2017-01-01T03:28:18.101Z,11.24
2017-01-01T03:29:29.001Z,11.15
2017-01-01T03:30:40.372Z,11.18
2017-01-01T03:31:51.265Z,11.15
2017-01-01T03:33:01.735Z,11.1
2017-01-01T03:34:13.055Z,11.18
2017-01-01T03:35:23.964Z,11.11
2017-01-01T03:36:35.477Z,11.18
2017-01-01T03:37:46.375Z,11.09
2017-01-01T03:38:57.696Z,11.14
2017-01-01T03:40:08.617Z,11.17
2017-01-01T03:41:19.510Z,11.19
2017-01-01T03:42:30.875Z,11.15
2017-01-01T03:43:41.764Z,11.09
2017-01-01T03:44:52.657Z,11.1
2017-01-01T03:46:03.983Z,11.18
2017-01-01T03:47:14.872Z,11.1
2017-01-01T03:48:26.241Z,11.11
2017-01-01T03:49:37.130Z,11.07
2017-01-01T03:50:48.447Z,11.11
2017-01-01T03:51:59.344Z,11.14
2017-01-01T03:53:10.230Z,11.1
2017-01-01T03:54:21.179Z,11.17
2017-01-01T03:55:32.068Z,11.07
2017-01-01T03:56:43.389Z,11.09
2017-01-01T03:57:54.714Z,11.07
2017-01-01T03:59:05.619Z,11.02
2017-01-01T04:00:16.992Z,11.06
2017-01-01T04:01:27.917Z,11.02
2017-01-01T04:02:38.818Z,11.07
2017-01-01T04:03:49.708Z,11.1
2017-01-01T04:05:00.613Z,11.11
2017-01-01T04:06:11.978Z,11.07
2017-01-01T04:07:23.315Z,11
2017-01-01T04:08:34.212Z,11.04
2017-01-01T04:09:45.109Z,11.04
2017-01-01T04:10:56.006Z,11.1
2017-01-01T04:12:06.951Z,11.03
2017-01-01T04:13:18.272Z,10.96
2017-01-01T04:14:29.626Z,11.06
2017-01-01T04:15:40.946Z,11.15
2017-01-01T04:16:52.272Z,11.11
2017-01-01T04:18:03.640Z,11.07
2017-01-01T04:19:14.974Z,11.04
2017-01-01T04:20:26.287Z,11.14
2017-01-01T04:21:37.180Z,11.11
2017-01-01T04:22:48.073Z,11.11
2017-01-01T04:23:59.015Z,11.02
2017-01-01T04:25:10.340Z,11.11
2017-01-01T04:26:21.657Z,10.97
2017-01-01T04:27:32.546Z,11.02
2017-01-01T04:28:43.859Z,11.03
2017-01-01T04:29:54.804Z,11.02
2017-01-01T04:31:06.117Z,11
2017-01-01T04:32:16.615Z,11
2017-01-01T04:33:27.516Z,11
2017-01-01T04:34:38.417Z,11.02
2017-01-01T04:35:49.506Z,10.99
2017-01-01T04:37:00.407Z,10.96
2017-01-01T04:38:11.728Z,11.04
2017-01-01T04:39:22.622Z,10.91
2017-01-01T04:40:33.527Z,11.04
2017-01-01T04:41:44.900Z,11.04
2017-01-01T04:42:56.214Z,10.92
2017-01-01T04:44:07.111Z,10.94
2017-01-01T04:45:18.425Z,11
2017-01-01T04:46:29.313Z,10.92
2017-01-01T04:47:40.687Z,11.02
2017-01-01T04:48:51.581Z,11.03
2017-01-01T04:50:02.482Z,11
2017-01-01T04:51:13.376Z,10.96
2017-01-01T04:52:24.725Z,10.92
2017-01-01T04:53:36.090Z,10.96
2017-01-01T04:54:46.988Z,10.92
2017-01-01T04:55:58.312Z,10.96
2017-01-01T04:57:09.630Z,10.97
2017-01-01T04:58:20.956Z,10.94
2017-01-01T04:59:32.333Z,10.94
2017-01-01T05:00:43.651Z,10.96
2017-01-01T05:01:54.556Z,10.94
2017-01-01T05:03:05.473Z,10.91
2017-01-01T05:04:16.795Z,10.92
2017-01-01T05:05:27.743Z,11.02
2017-01-01T05:06:38.633Z,10.97
2017-01-01T05:07:49.946Z,11
2017-01-01T05:09:00.839Z,10.91
2017-01-01T05:10:11.305Z,10.94
2017-01-01T05:11:22.831Z,10.99
2017-01-01T05:12:34.191Z,10.92
2017-01-01T05:13:45.081Z,10.84
2017-01-01T05:14:55.974Z,10.92
2017-01-01T05:16:06.867Z,10.96
2017-01-01T05:17:17.805Z,10.94
2017-01-01T05:18:28.698Z,10.99
2017-01-01T05:19:40.020Z,10.89
2017-01-01T05:20:51.345Z,10.89
2017-01-01T05:22:02.238Z,10.94
2017-01-01T05:23:13.620Z,10.99
2017-01-01T05:24:24.945Z,10.92
2017-01-01T05:25:36.270Z,10.92
2017-01-01T05:26:47.167Z,10.89
2017-01-01T05:27:58.489Z,10.97
2017-01-01T05:29:09.910Z,10.84
2017-01-01T05:30:20.811Z,10.94
2017-01-01T05:31:32.133Z,10.91
2017-01-01T05:32:43.034Z,10.99
2017-01-01T05:33:53.923Z,10.99
2017-01-01T05:35:05.304Z,10.84
2017-01-01T05:36:16.630Z,10.91
2017-01-01T05:37:27.519Z,10.89
2017-01-01T05:38:38.845Z,10.92
2017-01-01T05:39:49.738Z,10.88
2017-01-01T05:41:01.115Z,10.85
2017-01-01T05:42:12.000Z,10.91
2017-01-01T05:43:22.893Z,10.94
2017-01-01T05:44:34.223Z,10.86
2017-01-01T05:45:45.548Z,10.86
2017-01-01T05:46:56.913Z,10.85
2017-01-01T05:48:07.811Z,10.81
2017-01-01T05:49:19.132Z,10.82
2017-01-01T05:50:30.029Z,10.85
2017-01-01T05:51:41.358Z,10.91
2017-01-01T05:52:52.304Z,10.86
2017-01-01T05:54:03.205Z,10.82
2017-01-01T05:55:14.522Z,10.89
2017-01-01T05:56:25.871Z,10.88
2017-01-01T05:57:36.761Z,10.81
2017-01-01T05:58:47.718Z,10.82
2017-01-01T05:59:58.607Z,10.82
2017-01-01T06:01:09.500Z,10.89
2017-01-01T06:02:20.816Z,10.76
2017-01-01T06:03:31.715Z,10.89
2017-01-01T06:04:43.117Z,10.76
2017-01-01T06:05:54.010Z,10.82
2017-01-01T06:07:04.903Z,10.71
2017-01-01T06:08:16.228Z,10.82
2017-01-01T06:09:27.126Z,10.79
2017-01-01T06:10:38.495Z,10.78
2017-01-01T06:11:49.808Z,10.79
2017-01-01T06:13:01.125Z,10.74
2017-01-01T06:14:12.443Z,10.74
2017-01-01T06:15:23.336Z,10.82
2017-01-01T06:16:34.709Z,10.79
2017-01-01T06:17:45.606Z,10.76
2017-01-01T06:18:56.503Z,10.84
2017-01-01T06:20:07.817Z,10.76
2017-01-01T06:21:19.138Z,10.78
2017-01-01T06:22:30.508Z,10.81
2017-01-01T06:23:41.405Z,10.73
2017-01-01T06:24:52.303Z,10.73
2017-01-01T06:26:03.627Z,10.73
2017-01-01T06:27:14.949Z,10.74
2017-01-01T06:28:25.906Z,10.78
2017-01-01T06:29:36.799Z,10.78
2017-01-01T06:30:47.688Z,10.84
2017-01-01T06:31:58.577Z,10.73
2017-01-01T06:33:09.895Z,10.81
2017-01-01T06:34:20.840Z,10.71
2017-01-01T06:35:32.165Z,10.73
2017-01-01T06:36:43.051Z,10.76
2017-01-01T06:37:54.372Z,10.74
2017-01-01T06:39:05.686Z,10.74
2017-01-01T06:40:16.626Z,10.68
2017-01-01T06:41:27.945Z,10.7
2017-01-01T06:42:38.846Z,10.73
2017-01-01T06:43:49.754Z,10.73
2017-01-01T06:45:01.080Z,10.81
2017-01-01T06:46:12.549Z,10.71
2017-01-01T06:47:23.442Z,10.81
2017-01-01T06:48:34.776Z,10.86
2017-01-01T06:49:46.133Z,10.73
2017-01-01T06:50:57.458Z,10.73
2017-01-01T06:52:08.407Z,10.76
2017-01-01T06:53:19.729Z,10.78
2017-01-01T06:54:31.058Z,10.7
2017-01-01T06:55:42.383Z,10.78
2017-01-01T06:56:53.704Z,10.71
2017-01-01T06:58:05.070Z,10.67
2017-01-01T06:59:16.387Z,10.73
2017-01-01T07:00:27.276Z,10.7
2017-01-01T07:01:38.605Z,10.79
2017-01-01T07:02:49.922Z,10.68
2017-01-01T07:04:01.292Z,10.67
2017-01-01T07:05:12.609Z,10.79
2017-01-01T07:06:23.502Z,10.67
2017-01-01T07:07:34.828Z,10.68
2017-01-01T07:08:45.717Z,10.67
2017-01-01T07:09:56.666Z,10.68
2017-01-01T07:11:07.571Z,10.76
2017-01-01T07:12:18.885Z,10.71
2017-01-01T07:13:29.778Z,10.67
2017-01-01T07:14:41.099Z,10.7
2017-01-01T07:15:52.037Z,10.64
2017-01-01T07:17:02.918Z,10.73
2017-01-01T07:18:13.391Z,10.74
2017-01-01T07:19:24.725Z,10.7
2017-01-01T07:20:36.042Z,10.68
2017-01-01T07:21:46.987Z,10.74
2017-01-01T07:22:58.320Z,10.7
2017-01-01T07:24:09.636Z,10.67
2017-01-01T07:25:20.531Z,10.66
2017-01-01T07:26:31.844Z,10.68
2017-01-01T07:27:43.221Z,10.64
2017-01-01T07:28:54.115Z,10.55
2017-01-01T07:30:05.432Z,10.67
2017-01-01T07:31:16.333Z,10.63
2017-01-01T07:32:27.654Z,10.66
2017-01-01T07:33:38.603Z,10.66
2017-01-01T07:34:49.489Z,10.68
2017-01-01T07:36:00.814Z,10.68
2017-01-01T07:37:11.711Z,10.63
2017-01-01T07:38:22.612Z,10.7
2017-01-01T07:39:34.134Z,10.68
2017-01-01T07:40:45.455Z,10.67
2017-01-01T07:41:55.908Z,10.7
2017-01-01T07:43:07.229Z,10.66
2017-01-01T07:44:18.550Z,10.67
2017-01-01T07:45:29.920Z,10.71
2017-01-01T07:46:41.233Z,10.7
2017-01-01T07:47:52.559Z,10.66
2017-01-01T07:49:03.448Z,10.73
2017-01-01T07:50:14.773Z,10.66
2017-01-01T07:51:26.154Z,10.71
2017-01-01T07:52:37.493Z,10.67
2017-01-01T07:53:48.813Z,10.74
2017-01-01T07:54:59.711Z,10.61
2017-01-01T07:56:11.039Z,10.68
2017-01-01T07:57:22.417Z,10.61
2017-01-01T07:58:33.306Z,10.66
2017-01-01T07:59:44.635Z,10.67
2017-01-01T08:00:55.949Z,10.71
2017-01-01T08:02:07.266Z,10.71
2017-01-01T08:03:18.243Z,10.67
2017-01-01T08:04:29.556Z,10.71
2017-01-01T08:05:40.878Z,10.66
2017-01-01T08:06:51.783Z,10.76
2017-01-01T08:08:02.684Z,10.74
2017-01-01T08:09:14.073Z,10.73
2017-01-01T08:10:25.394Z,10.63
2017-01-01T08:11:36.287Z,10.7
2017-01-01T08:12:47.607Z,10.67
2017-01-01T08:13:58.076Z,10.73
2017-01-01T08:15:09.445Z,10.73
2017-01-01T08:16:20.341Z,10.71
2017-01-01T08:17:31.230Z,10.71
2017-01-01T08:18:42.559Z,10.7
2017-01-01T08:19:53.880Z,10.66
2017-01-01T08:21:04.824Z,10.76
2017-01-01T08:22:16.149Z,10.68
2017-01-01T08:23:27.478Z,10.66
2017-01-01T08:24:37.947Z,10.78
2017-01-01T08:25:48.848Z,10.71
2017-01-01T08:27:00.212Z,10.73
2017-01-01T08:28:11.108Z,10.71
2017-01-01T08:29:22.430Z,10.74
2017-01-01T08:30:33.318Z,10.68
2017-01-01T08:31:44.223Z,10.79
2017-01-01T08:32:55.163Z,10.84
2017-01-01T08:34:06.064Z,10.76
2017-01-01T08:35:17.390Z,10.84
2017-01-01T08:36:28.710Z,10.82
2017-01-01T08:37:40.023Z,10.79
2017-01-01T08:38:51.396Z,10.79
2017-01-01T08:40:02.709Z,10.82
2017-01-01T08:41:13.610Z,10.85
2017-01-01T08:42:24.935Z,10.82
2017-01-01T08:43:35.828Z,10.79
2017-01-01T08:44:46.349Z,10.92
2017-01-01T08:45:57.666Z,10.85
2017-01-01T08:47:08.568Z,10.86
2017-01-01T08:48:19.888Z,10.86
2017-01-01T08:49:31.210Z,10.85
2017-01-01T08:50:42.158Z,10.85
2017-01-01T08:51:53.483Z,10.84
2017-01-01T08:53:03.937Z,10.81
2017-01-01T08:54:15.258Z,10.88
2017-01-01T08:55:26.147Z,10.91
2017-01-01T08:56:37.089Z,10.91
2017-01-01T08:57:48.405Z,10.86
2017-01-01T08:58:59.294Z,10.88
2017-01-01T09:00:10.191Z,10.92
2017-01-01T09:01:21.088Z,10.86
2017-01-01T09:02:32.458Z,10.91
2017-01-01T09:03:42.919Z,10.94
2017-01-01T09:04:53.384Z,10.88
2017-01-01T09:06:04.272Z,10.91
2017-01-01T09:07:15.170Z,10.99
2017-01-01T09:08:26.531Z,10.97
2017-01-01T09:09:37.440Z,10.92
2017-01-01T09:10:48.329Z,10.96
2017-01-01T09:11:59.226Z,10.94
2017-01-01T09:13:10.116Z,10.85
2017-01-01T09:14:21.488Z,10.94
2017-01-01T09:15:32.809Z,10.97
2017-01-01T09:16:43.710Z,11.03
2017-01-01T09:17:55.027Z,11.02
2017-01-01T09:19:05.932Z,11.06
2017-01-01T09:20:17.338Z,10.97
2017-01-01T09:21:28.658Z,10.99
2017-01-01T09:22:39.979Z,10.99
2017-01-01T09:23:50.861Z,10.88
2017-01-01T09:25:01.762Z,10.97
2017-01-01T09:26:12.699Z,10.97
2017-01-01T09:27:23.168Z,10.91
2017-01-01T09:28:34.061Z,10.88
2017-01-01T09:29:44.950Z,10.88
2017-01-01T09:30:56.275Z,10.96
2017-01-01T09:32:07.220Z,11
2017-01-01T09:33:18.121Z,10.97
2017-01-01T09:34:29.010Z,10.97
2017-01-01T09:35:39.903Z,10.97
2017-01-01T09:36:51.228Z,10.94
2017-01-01T09:38:02.166Z,11.04
2017-01-01T09:39:13.059Z,11
2017-01-01T09:40:24.408Z,11.02
2017-01-01T09:41:35.733Z,10.94
2017-01-01T09:42:47.074Z,10.99
2017-01-01T09:43:58.547Z,11.07
2017-01-01T09:45:09.440Z,10.97
2017-01-01T09:46:20.333Z,11.02
2017-01-01T09:47:31.226Z,11.1
2017-01-01T09:48:42.551Z,11.02
2017-01-01T09:49:53.920Z,11.1
2017-01-01T09:51:05.245Z,11
2017-01-01T09:52:16.563Z,11.14
2017-01-01T09:53:27.032Z,11.09
2017-01-01T09:54:37.929Z,11.1
2017-01-01T09:55:49.302Z,11.04
2017-01-01T09:57:00.615Z,11.11
2017-01-01T09:58:11.932Z,11.09
2017-01-01T09:59:22.833Z,11.17
2017-01-01T10:00:34.147Z,11.18
2017-01-01T10:01:45.088Z,11.1
2017-01-01T10:02:55.977Z,11.1
2017-01-01T10:04:07.322Z,11.1
2017-01-01T10:05:18.649Z,11.15
2017-01-01T10:06:29.964Z,11.25
2017-01-01T10:07:40.906Z,11.22
2017-01-01T10:08:51.798Z,11.11
2017-01-01T10:10:02.267Z,11.19
2017-01-01T10:11:13.588Z,11.17
2017-01-01T10:12:24.485Z,11.15
2017-01-01T10:13:35.431Z,11.17
2017-01-01T10:14:46.347Z,11.24
2017-01-01T10:15:57.676Z,11.14
2017-01-01T10:17:08.565Z,11.15
2017-01-01T10:18:19.462Z,11.15
2017-01-01T10:19:30.859Z,11.21
2017-01-01T10:20:41.744Z,11.22
2017-01-01T10:21:52.637Z,11.14
2017-01-01T10:23:03.534Z,11.1
2017-01-01T10:24:14.851Z,11.11
2017-01-01T10:25:25.408Z,11.17
2017-01-01T10:26:36.733Z,11.22
2017-01-01T10:27:47.630Z,11.18
2017-01-01T10:28:58.963Z,11.22
2017-01-01T10:30:09.880Z,11.11
2017-01-01T10:31:21.246Z,11.15
2017-01-01T10:32:32.134Z,11.22
2017-01-01T10:33:43.456Z,11.14
2017-01-01T10:34:54.776Z,11.15
2017-01-01T10:36:05.673Z,11.15
2017-01-01T10:37:17.051Z,11.14
2017-01-01T10:38:28.404Z,11.18
2017-01-01T10:39:39.304Z,11.06
2017-01-01T10:40:50.625Z,11.14
2017-01-01T10:42:01.519Z,11.21
2017-01-01T10:43:12.456Z,11.19
2017-01-01T10:44:22.953Z,11.21
2017-01-01T10:45:33.854Z,11.15
2017-01-01T10:46:45.175Z,11.11
2017-01-01T10:47:56.505Z,11.24
2017-01-01T10:49:07.446Z,11.19
2017-01-01T10:50:18.766Z,11.18
2017-01-01T10:51:30.080Z,11.17
2017-01-01T10:52:40.972Z,11.18
2017-01-01T10:53:52.302Z,11.14
2017-01-01T10:55:03.239Z,11.24
2017-01-01T10:56:14.568Z,11.27
2017-01-01T10:57:25.485Z,11.27
2017-01-01T10:58:36.370Z,11.15
2017-01-01T10:59:47.256Z,11.22
2017-01-01T11:00:58.200Z,11.21
2017-01-01T11:02:09.097Z,11.18
2017-01-01T11:03:20.415Z,11.22
2017-01-01T11:04:31.308Z,11.19
2017-01-01T11:05:42.625Z,11.24
2017-01-01T11:06:54.014Z,11.25
2017-01-01T11:08:05.327Z,11.19
2017-01-01T11:09:16.648Z,11.28
2017-01-01T11:10:27.541Z,11.35
2017-01-01T11:11:38.863Z,11.21
2017-01-01T11:12:50.235Z,11.24
2017-01-01T11:14:00.692Z,11.35
2017-01-01T11:15:12.013Z,11.33
2017-01-01T11:16:23.347Z,11.36
2017-01-01T11:17:34.236Z,11.25
2017-01-01T11:18:45.345Z,11.36
2017-01-01T11:19:56.690Z,11.44
2017-01-01T11:21:08.003Z,11.32
2017-01-01T11:22:18.928Z,11.4
2017-01-01T11:23:29.841Z,11.4
2017-01-01T11:24:40.782Z,11.42
2017-01-01T11:25:51.688Z,11.39
2017-01-01T11:27:03.001Z,11.35
2017-01-01T11:28:14.321Z,11.35
2017-01-01T11:29:25.639Z,11.39
2017-01-01T11:30:36.588Z,11.46
2017-01-01T11:31:47.493Z,11.37
2017-01-01T11:32:58.814Z,11.44
2017-01-01T11:34:10.131Z,11.49
2017-01-01T11:35:21.024Z,11.42
2017-01-01T11:36:32.406Z,11.51
2017-01-01T11:37:43.731Z,11.47
2017-01-01T11:38:54.620Z,11.51
2017-01-01T11:40:05.517Z,11.52
2017-01-01T11:41:16.830Z,11.46
2017-01-01T11:42:27.771Z,11.51
2017-01-01T11:43:38.660Z,11.55
2017-01-01T11:44:49.985Z,11.54
2017-01-01T11:46:01.298Z,11.54
2017-01-01T11:47:12.619Z,11.55
2017-01-01T11:48:23.988Z,11.61
2017-01-01T11:49:35.336Z,11.57
2017-01-01T11:50:46.682Z,11.64
2017-01-01T11:51:57.997Z,11.6
2017-01-01T11:53:08.885Z,11.55
2017-01-01T11:54:20.262Z,11.57
2017-01-01T11:55:30.295Z,11.54
2017-01-01T11:56:41.620Z,11.47
2017-01-01T11:57:52.517Z,11.55
2017-01-01T11:59:03.410Z,11.54
2017-01-01T12:00:14.360Z,11.58
2017-01-01T12:01:25.253Z,11.54
2017-01-01T12:02:36.153Z,11.69
2017-01-01T12:03:47.039Z,11.6
2017-01-01T12:04:57.936Z,11.61
2017-01-01T12:06:08.877Z,11.58
2017-01-01T12:07:19.766Z,11.54
2017-01-01T12:08:31.079Z,11.6
2017-01-01T12:09:42.400Z,11.61
2017-01-01T12:10:53.721Z,11.6
2017-01-01T12:12:04.234Z,11.64
2017-01-01T12:13:15.135Z,11.69
2017-01-01T12:14:26.457Z,11.55
2017-01-01T12:15:37.350Z,11.69
2017-01-01T12:16:48.707Z,11.58
2017-01-01T12:17:59.648Z,11.67
2017-01-01T12:19:10.969Z,11.64
2017-01-01T12:20:22.283Z,11.69
2017-01-01T12:21:32.744Z,11.78
2017-01-01T12:22:43.629Z,11.62
2017-01-01T12:23:54.998Z,11.64
2017-01-01T12:25:06.308Z,11.69
2017-01-01T12:26:17.205Z,11.67
2017-01-01T12:27:28.518Z,11.72
2017-01-01T12:28:39.415Z,11.83
2017-01-01T12:29:50.784Z,11.83
2017-01-01T12:31:01.673Z,11.83
2017-01-01T12:32:12.999Z,11.98
2017-01-01T12:33:23.892Z,11.94
2017-01-01T12:34:34.795Z,11.96
2017-01-01T12:35:45.750Z,12.02
2017-01-01T12:36:57.067Z,11.99
2017-01-01T12:38:07.965Z,11.98
2017-01-01T12:39:18.853Z,12.02
2017-01-01T12:40:29.755Z,11.99
2017-01-01T12:41:41.132Z,12.01
2017-01-01T12:42:52.025Z,12.01
2017-01-01T12:44:02.931Z,11.98
2017-01-01T12:45:13.823Z,11.94
2017-01-01T12:46:24.725Z,11.99
2017-01-01T12:47:36.202Z,11.94
2017-01-01T12:48:47.099Z,11.99
2017-01-01T12:49:58.424Z,11.98
2017-01-01T12:51:09.318Z,12.04
2017-01-01T12:52:20.211Z,12.02
2017-01-01T12:53:31.584Z,12.04
2017-01-01T12:54:42.474Z,11.95
2017-01-01T12:55:53.791Z,12.09
2017-01-01T12:57:05.108Z,12.02
2017-01-01T12:58:16.002Z,12.04
2017-01-01T12:59:27.379Z,11.99
2017-01-01T13:00:38.278Z,12.01
2017-01-01T13:01:49.174Z,12.04
2017-01-01T13:03:00.496Z,12.05
2017-01-01T13:04:11.393Z,11.95
2017-01-01T13:05:22.338Z,12.1
2017-01-01T13:06:33.231Z,12.05
2017-01-01T13:07:44.124Z,12.04
2017-01-01T13:08:55.013Z,12.09
2017-01-01T13:10:05.907Z,12.09
2017-01-01T13:11:17.284Z,12.13
2017-01-01T13:12:27.741Z,12.09
2017-01-01T13:13:38.645Z,12.09
2017-01-01T13:14:49.964Z,12.01
2017-01-01T13:16:00.857Z,12.13
2017-01-01T13:17:12.230Z,12.05
2017-01-01T13:18:23.543Z,12.04
2017-01-01T13:19:34.437Z,12.14
2017-01-01T13:20:45.758Z,12.27
2017-01-01T13:21:56.648Z,12.17
2017-01-01T13:23:08.025Z,12.23
2017-01-01T13:24:18.950Z,12.32
2017-01-01T13:25:29.836Z,12.35
2017-01-01T13:26:40.732Z,12.39
2017-01-01T13:27:51.630Z,12.45
2017-01-01T13:29:02.579Z,12.41
2017-01-01T13:30:13.484Z,12.54
2017-01-01T13:31:24.382Z,12.5
2017-01-01T13:32:35.707Z,12.45
2017-01-01T13:33:46.600Z,12.52
2017-01-01T13:34:58.005Z,12.56
2017-01-01T13:36:08.907Z,12.56
2017-01-01T13:37:19.792Z,12.56
2017-01-01T13:38:30.693Z,12.62
2017-01-01T13:39:42.022Z,12.47
2017-01-01T13:40:53.388Z,12.57
2017-01-01T13:42:04.289Z,12.56
2017-01-01T13:43:15.190Z,12.57
2017-01-01T13:44:26.507Z,12.64
2017-01-01T13:45:37.399Z,12.59
2017-01-01T13:46:48.346Z,12.72
2017-01-01T13:47:59.663Z,12.64
2017-01-01T13:49:10.553Z,12.67
2017-01-01T13:50:21.886Z,12.62
2017-01-01T13:51:32.779Z,12.71
2017-01-01T13:52:43.724Z,12.68
2017-01-01T13:53:55.050Z,12.67
2017-01-01T13:55:05.943Z,12.62
2017-01-01T13:56:16.416Z,12.6
2017-01-01T13:57:27.321Z,12.56
2017-01-01T13:58:38.695Z,12.68
2017-01-01T13:59:49.589Z,12.59
2017-01-01T14:01:00.913Z,12.54
2017-01-01T14:02:11.811Z,12.62
2017-01-01T14:03:22.708Z,12.6
2017-01-01T14:04:34.081Z,12.6
2017-01-01T14:05:45.406Z,12.6
2017-01-01T14:06:56.308Z,12.54
2017-01-01T14:08:07.210Z,12.56
2017-01-01T14:09:18.539Z,12.59
2017-01-01T14:10:29.488Z,12.5
2017-01-01T14:11:40.377Z,12.54
2017-01-01T14:12:51.706Z,12.46
2017-01-01T14:14:02.596Z,12.52
2017-01-01T14:15:13.497Z,12.46
2017-01-01T14:16:24.871Z,12.42
2017-01-01T14:17:36.200Z,12.52
2017-01-01T14:18:47.089Z,12.41
2017-01-01T14:19:58.414Z,12.41
2017-01-01T14:21:09.732Z,12.35
2017-01-01T14:22:21.109Z,12.31
2017-01-01T14:23:31.994Z,12.34
2017-01-01T14:24:43.348Z,12.35
2017-01-01T14:25:54.245Z,12.29
2017-01-01T14:27:05.142Z,12.38
2017-01-01T14:28:16.515Z,12.27
2017-01-01T14:29:27.405Z,12.29
2017-01-01T14:30:38.730Z,12.34
2017-01-01T14:31:50.047Z,12.29
2017-01-01T14:33:00.949Z,12.21
2017-01-01T14:34:12.318Z,12.31
2017-01-01T14:35:23.207Z,12.27
2017-01-01T14:36:34.525Z,12.23
2017-01-01T14:37:44.989Z,12.2
2017-01-01T14:38:55.883Z,12.16
2017-01-01T14:40:06.401Z,12.21
2017-01-01T14:41:17.742Z,12.05
2017-01-01T14:42:28.635Z,12.19
2017-01-01T14:43:39.956Z,12.09
2017-01-01T14:44:50.842Z,12.02
2017-01-01T14:46:02.223Z,11.99
2017-01-01T14:47:13.552Z,12.05
2017-01-01T14:48:24.442Z,12.13
2017-01-01T14:49:35.763Z,12.09
2017-01-01T14:50:47.084Z,12.09
2017-01-01T14:51:58.458Z,11.99
2017-01-01T14:53:09.359Z,11.98
2017-01-01T14:54:20.680Z,12.09
2017-01-01T14:55:31.573Z,11.88
2017-01-01T14:56:42.898Z,11.99
2017-01-01T14:57:53.407Z,11.86
2017-01-01T14:59:04.304Z,11.91
2017-01-01T15:00:15.633Z,11.88
2017-01-01T15:01:26.550Z,11.88
2017-01-01T15:02:37.447Z,11.94
2017-01-01T15:03:48.392Z,11.86
2017-01-01T15:04:59.286Z,11.79
2017-01-01T15:06:10.174Z,11.8
2017-01-01T15:07:21.500Z,11.86
2017-01-01T15:08:32.397Z,11.8
2017-01-01T15:09:43.338Z,11.82
2017-01-01T15:10:54.659Z,11.65
2017-01-01T15:12:05.132Z,11.73
2017-01-01T15:13:16.030Z,11.67
2017-01-01T15:14:26.970Z,11.67
2017-01-01T15:15:38.389Z,11.73
2017-01-01T15:16:49.293Z,11.72
2017-01-01T15:18:00.620Z,11.6
2017-01-01T15:19:11.519Z,11.62